sensor_id;sensor_type;location;lat;lon;timestamp;temperature;humidity
31661;DHT22;18267;52.234;7.444;2023-12-14T00:01:28;6.40;99.90
31661;DHT22;18267;52.234;7.444;2023-12-14T00:03:53;6.40;99.90
31661;DHT22;18267;52.234;7.444;2023-12-14T00:06:19;6.50;99.90
31661;DHT22;18267;52.234;7.444;2023-12-14T00:08:44;6.40;99.90
31661;DHT22;18267;52.234;7.444;2023-12-14T00:11:11;6.50;99.90
31661;DHT22;18267;52.234;7.444;2023-12-14T00:13:37;6.60;99.90
31661;DHT22;18267;52.234;7.444;2023-12-14T00:16:03;6.60;99.90
31661;DHT22;18267;52.234;7.444;2023-12-14T00:18:28;6.40;99.90
31661;DHT22;18267;52.234;7.444;2023-12-14T00:20:54;6.30;99.90
31661;DHT22;18267;52.234;7.444;2023-12-14T00:23:20;6.30;99.90
31661;DHT22;18267;52.234;7.444;2023-12-14T00:25:46;6.40;99.90
31661;DHT22;18267;52.234;7.444;2023-12-14T00:28:12;6.20;99.90
31661;DHT22;18267;52.234;7.444;2023-12-14T00:30:38;6.30;99.90
31661;DHT22;18267;52.234;7.444;2023-12-14T00:33:04;6.30;99.90
31661;DHT22;18267;52.234;7.444;2023-12-14T00:35:29;6.40;99.90
31661;DHT22;18267;52.234;7.444;2023-12-14T00:37:55;6.30;99.90
31661;DHT22;18267;52.234;7.444;2023-12-14T00:40:21;6.30;99.90
31661;DHT22;18267;52.234;7.444;2023-12-14T00:42:47;6.30;99.90
31661;DHT22;18267;52.234;7.444;2023-12-14T00:45:12;6.20;99.90
31661;DHT22;18267;52.234;7.444;2023-12-14T00:47:38;6.20;99.90
31661;DHT22;18267;52.234;7.444;2023-12-14T00:50:04;6.20;99.90
31661;DHT22;18267;52.234;7.444;2023-12-14T00:52:30;6.20;99.90
31661;DHT22;18267;52.234;7.444;2023-12-14T00:54:55;6.20;99.90
31661;DHT22;18267;52.234;7.444;2023-12-14T00:57:22;6.30;99.90
31661;DHT22;18267;52.234;7.444;2023-12-14T00:59:48;6.30;99.90
31661;DHT22;18267;52.234;7.444;2023-12-14T01:02:13;6.20;99.90
31661;DHT22;18267;52.234;7.444;2023-12-14T01:04:39;6.20;99.90
31661;DHT22;18267;52.234;7.444;2023-12-14T01:07:04;6.10;99.90
31661;DHT22;18267;52.234;7.444;2023-12-14T01:09:30;6.20;99.90
31661;DHT22;18267;52.234;7.444;2023-12-14T01:11:55;6.20;99.90
31661;DHT22;18267;52.234;7.444;2023-12-14T01:14:21;6.20;99.90
31661;DHT22;18267;52.234;7.444;2023-12-14T01:16:47;6.20;99.90
31661;DHT22;18267;52.234;7.444;2023-12-14T01:19:12;6.10;99.90
31661;DHT22;18267;52.234;7.444;2023-12-14T01:21:38;6.20;99.90
31661;DHT22;18267;52.234;7.444;2023-12-14T01:24:03;6.20;99.90
31661;DHT22;18267;52.234;7.444;2023-12-14T01:26:29;6.10;99.90
31661;DHT22;18267;52.234;7.444;2023-12-14T01:28:54;6.00;99.90
31661;DHT22;18267;52.234;7.444;2023-12-14T01:31:20;5.90;99.90
31661;DHT22;18267;52.234;7.444;2023-12-14T01:33:49;5.90;99.90
31661;DHT22;18267;52.234;7.444;2023-12-14T01:36:25;5.80;99.90
31661;DHT22;18267;52.234;7.444;2023-12-14T01:38:51;5.90;99.90
31661;DHT22;18267;52.234;7.444;2023-12-14T01:41:17;6.00;99.90
31661;DHT22;18267;52.234;7.444;2023-12-14T01:43:43;6.10;99.90
31661;DHT22;18267;52.234;7.444;2023-12-14T01:46:09;6.10;99.90
31661;DHT22;18267;52.234;7.444;2023-12-14T01:48:35;6.10;99.90
31661;DHT22;18267;52.234;7.444;2023-12-14T01:51:00;6.10;99.90
31661;DHT22;18267;52.234;7.444;2023-12-14T01:53:26;6.00;99.90
31661;DHT22;18267;52.234;7.444;2023-12-14T01:55:52;6.00;99.90
31661;DHT22;18267;52.234;7.444;2023-12-14T01:58:17;6.10;99.90
31661;DHT22;18267;52.234;7.444;2023-12-14T02:00:55;6.00;99.90
31661;DHT22;18267;52.234;7.444;2023-12-14T02:03:23;6.00;99.90
31661;DHT22;18267;52.234;7.444;2023-12-14T02:05:49;5.90;99.90
31661;DHT22;18267;52.234;7.444;2023-12-14T02:08:15;5.90;99.90
31661;DHT22;18267;52.234;7.444;2023-12-14T02:10:40;5.80;99.90
31661;DHT22;18267;52.234;7.444;2023-12-14T02:13:06;5.90;99.90
31661;DHT22;18267;52.234;7.444;2023-12-14T02:15:32;5.90;99.90
31661;DHT22;18267;52.234;7.444;2023-12-14T02:17:58;6.00;99.90
31661;DHT22;18267;52.234;7.444;2023-12-14T02:20:24;6.10;99.90
31661;DHT22;18267;52.234;7.444;2023-12-14T02:22:53;6.00;99.90
31661;DHT22;18267;52.234;7.444;2023-12-14T02:25:20;6.10;99.90
31661;DHT22;18267;52.234;7.444;2023-12-14T02:27:46;6.20;99.90
31661;DHT22;18267;52.234;7.444;2023-12-14T02:30:12;6.20;99.90
31661;DHT22;18267;52.234;7.444;2023-12-14T02:32:38;6.30;99.90
31661;DHT22;18267;52.234;7.444;2023-12-14T02:35:05;6.20;99.90
31661;DHT22;18267;52.234;7.444;2023-12-14T02:37:32;6.20;99.90
31661;DHT22;18267;52.234;7.444;2023-12-14T02:39:58;6.20;99.90
31661;DHT22;18267;52.234;7.444;2023-12-14T02:42:24;6.30;99.90
31661;DHT22;18267;52.234;7.444;2023-12-14T02:44:49;6.40;99.90
31661;DHT22;18267;52.234;7.444;2023-12-14T02:47:15;6.40;99.90
31661;DHT22;18267;52.234;7.444;2023-12-14T02:49:41;6.50;99.90
31661;DHT22;18267;52.234;7.444;2023-12-14T02:52:07;6.40;99.90
31661;DHT22;18267;52.234;7.444;2023-12-14T02:54:32;6.50;99.90
31661;DHT22;18267;52.234;7.444;2023-12-14T02:56:58;6.30;99.90
31661;DHT22;18267;52.234;7.444;2023-12-14T02:59:23;6.20;99.90
31661;DHT22;18267;52.234;7.444;2023-12-14T03:01:49;5.90;99.90
31661;DHT22;18267;52.234;7.444;2023-12-14T03:04:14;5.90;99.90
31661;DHT22;18267;52.234;7.444;2023-12-14T03:06:40;6.00;99.90
31661;DHT22;18267;52.234;7.444;2023-12-14T03:09:05;6.10;99.90
31661;DHT22;18267;52.234;7.444;2023-12-14T03:11:31;6.10;99.90
31661;DHT22;18267;52.234;7.444;2023-12-14T03:13:56;6.10;99.90
31661;DHT22;18267;52.234;7.444;2023-12-14T03:16:22;6.20;99.90
31661;DHT22;18267;52.234;7.444;2023-12-14T03:18:48;6.10;99.90
31661;DHT22;18267;52.234;7.444;2023-12-14T03:21:17;5.90;99.90
31661;DHT22;18267;52.234;7.444;2023-12-14T03:23:43;5.90;99.90
31661;DHT22;18267;52.234;7.444;2023-12-14T03:26:08;6.00;99.90
31661;DHT22;18267;52.234;7.444;2023-12-14T03:28:34;5.90;99.90
31661;DHT22;18267;52.234;7.444;2023-12-14T03:31:00;6.00;99.90
31661;DHT22;18267;52.234;7.444;2023-12-14T03:33:26;6.00;99.90
31661;DHT22;18267;52.234;7.444;2023-12-14T03:35:51;6.10;99.90
31661;DHT22;18267;52.234;7.444;2023-12-14T03:38:17;6.10;99.90
31661;DHT22;18267;52.234;7.444;2023-12-14T03:40:43;6.10;99.90
31661;DHT22;18267;52.234;7.444;2023-12-14T03:43:08;6.20;99.90
31661;DHT22;18267;52.234;7.444;2023-12-14T03:45:35;6.10;99.90
31661;DHT22;18267;52.234;7.444;2023-12-14T03:48:00;6.00;99.90
31661;DHT22;18267;52.234;7.444;2023-12-14T03:50:26;6.00;99.90
31661;DHT22;18267;52.234;7.444;2023-12-14T03:52:51;6.00;99.90
31661;DHT22;18267;52.234;7.444;2023-12-14T03:55:17;5.90;99.90
31661;DHT22;18267;52.234;7.444;2023-12-14T03:57:43;6.10;99.90
31661;DHT22;18267;52.234;7.444;2023-12-14T04:00:12;6.00;99.90
31661;DHT22;18267;52.234;7.444;2023-12-14T04:02:39;6.00;99.90
31661;DHT22;18267;52.234;7.444;2023-12-14T04:05:06;6.00;99.90
31661;DHT22;18267;52.234;7.444;2023-12-14T04:07:32;6.10;99.90
31661;DHT22;18267;52.234;7.444;2023-12-14T04:09:57;6.10;99.90
31661;DHT22;18267;52.234;7.444;2023-12-14T04:12:23;6.20;99.90
31661;DHT22;18267;52.234;7.444;2023-12-14T04:14:48;6.30;99.90
31661;DHT22;18267;52.234;7.444;2023-12-14T04:17:15;6.20;99.90
31661;DHT22;18267;52.234;7.444;2023-12-14T04:19:41;6.30;99.90
31661;DHT22;18267;52.234;7.444;2023-12-14T04:22:07;6.20;99.90
31661;DHT22;18267;52.234;7.444;2023-12-14T04:24:33;6.30;99.90
31661;DHT22;18267;52.234;7.444;2023-12-14T04:26:58;6.30;99.90
31661;DHT22;18267;52.234;7.444;2023-12-14T04:29:24;6.30;99.90
31661;DHT22;18267;52.234;7.444;2023-12-14T04:31:49;6.40;99.90
31661;DHT22;18267;52.234;7.444;2023-12-14T04:34:15;6.40;99.90
31661;DHT22;18267;52.234;7.444;2023-12-14T04:36:45;6.40;99.90
31661;DHT22;18267;52.234;7.444;2023-12-14T04:39:11;6.40;99.90
31661;DHT22;18267;52.234;7.444;2023-12-14T04:41:36;6.30;99.90
31661;DHT22;18267;52.234;7.444;2023-12-14T04:44:02;6.30;99.90
31661;DHT22;18267;52.234;7.444;2023-12-14T04:46:28;6.20;99.90
31661;DHT22;18267;52.234;7.444;2023-12-14T04:48:54;6.20;99.90
31661;DHT22;18267;52.234;7.444;2023-12-14T04:51:20;6.30;99.90
31661;DHT22;18267;52.234;7.444;2023-12-14T04:53:46;6.20;99.90
31661;DHT22;18267;52.234;7.444;2023-12-14T04:56:12;6.20;99.90
31661;DHT22;18267;52.234;7.444;2023-12-14T04:58:41;6.30;99.90
31661;DHT22;18267;52.234;7.444;2023-12-14T05:01:07;6.40;99.90
31661;DHT22;18267;52.234;7.444;2023-12-14T05:03:36;6.30;99.90
31661;DHT22;18267;52.234;7.444;2023-12-14T05:06:01;6.10;99.90
31661;DHT22;18267;52.234;7.444;2023-12-14T05:08:27;6.00;99.90
31661;DHT22;18267;52.234;7.444;2023-12-14T05:10:52;5.90;99.90
31661;DHT22;18267;52.234;7.444;2023-12-14T05:13:18;5.90;99.90
31661;DHT22;18267;52.234;7.444;2023-12-14T05:15:44;5.80;99.90
31661;DHT22;18267;52.234;7.444;2023-12-14T05:18:09;5.70;99.90
31661;DHT22;18267;52.234;7.444;2023-12-14T05:20:35;5.70;99.90
31661;DHT22;18267;52.234;7.444;2023-12-14T05:23:01;5.70;99.90
31661;DHT22;18267;52.234;7.444;2023-12-14T05:25:27;5.70;99.90
31661;DHT22;18267;52.234;7.444;2023-12-14T05:27:53;5.80;99.90
31661;DHT22;18267;52.234;7.444;2023-12-14T05:30:18;5.80;99.90
31661;DHT22;18267;52.234;7.444;2023-12-14T05:32:44;5.80;99.90
31661;DHT22;18267;52.234;7.444;2023-12-14T05:35:10;5.90;99.90
31661;DHT22;18267;52.234;7.444;2023-12-14T05:37:36;5.90;99.90
31661;DHT22;18267;52.234;7.444;2023-12-14T05:40:02;6.00;99.90
31661;DHT22;18267;52.234;7.444;2023-12-14T05:42:28;6.10;99.90
31661;DHT22;18267;52.234;7.444;2023-12-14T05:44:53;5.90;99.90
31661;DHT22;18267;52.234;7.444;2023-12-14T05:47:19;6.00;99.90
31661;DHT22;18267;52.234;7.444;2023-12-14T05:49:45;6.10;99.90
31661;DHT22;18267;52.234;7.444;2023-12-14T05:52:11;6.10;99.90
31661;DHT22;18267;52.234;7.444;2023-12-14T05:54:37;6.10;99.90
31661;DHT22;18267;52.234;7.444;2023-12-14T05:57:04;6.00;99.90
31661;DHT22;18267;52.234;7.444;2023-12-14T05:59:30;6.00;99.90
31661;DHT22;18267;52.234;7.444;2023-12-14T06:01:59;6.00;99.90
31661;DHT22;18267;52.234;7.444;2023-12-14T06:04:26;5.80;99.90
31661;DHT22;18267;52.234;7.444;2023-12-14T06:06:52;5.80;99.90
31661;DHT22;18267;52.234;7.444;2023-12-14T06:09:18;5.80;99.90
31661;DHT22;18267;52.234;7.444;2023-12-14T06:11:47;5.90;99.90
31661;DHT22;18267;52.234;7.444;2023-12-14T06:14:12;5.90;99.90
31661;DHT22;18267;52.234;7.444;2023-12-14T06:16:38;5.90;99.90
31661;DHT22;18267;52.234;7.444;2023-12-14T06:19:03;6.00;99.90
31661;DHT22;18267;52.234;7.444;2023-12-14T06:21:29;6.00;99.90
31661;DHT22;18267;52.234;7.444;2023-12-14T06:23:55;5.90;99.90
31661;DHT22;18267;52.234;7.444;2023-12-14T06:26:22;5.90;99.90
31661;DHT22;18267;52.234;7.444;2023-12-14T06:28:47;5.90;99.90
31661;DHT22;18267;52.234;7.444;2023-12-14T06:31:14;6.00;99.90
31661;DHT22;18267;52.234;7.444;2023-12-14T06:33:40;6.00;99.90
31661;DHT22;18267;52.234;7.444;2023-12-14T06:36:07;6.10;99.90
31661;DHT22;18267;52.234;7.444;2023-12-14T06:38:33;6.10;99.90
31661;DHT22;18267;52.234;7.444;2023-12-14T06:40:58;6.10;99.90
31661;DHT22;18267;52.234;7.444;2023-12-14T06:43:24;5.90;99.90
31661;DHT22;18267;52.234;7.444;2023-12-14T06:45:49;5.90;99.90
31661;DHT22;18267;52.234;7.444;2023-12-14T06:48:15;5.80;99.90
31661;DHT22;18267;52.234;7.444;2023-12-14T06:50:41;5.70;99.90
31661;DHT22;18267;52.234;7.444;2023-12-14T06:53:06;5.60;99.90
31661;DHT22;18267;52.234;7.444;2023-12-14T06:55:32;5.60;99.90
31661;DHT22;18267;52.234;7.444;2023-12-14T06:57:57;5.60;99.90
31661;DHT22;18267;52.234;7.444;2023-12-14T07:00:23;5.60;99.90
31661;DHT22;18267;52.234;7.444;2023-12-14T07:02:48;5.70;99.90
31661;DHT22;18267;52.234;7.444;2023-12-14T07:05:14;5.60;99.90
31661;DHT22;18267;52.234;7.444;2023-12-14T07:07:40;5.50;99.90
31661;DHT22;18267;52.234;7.444;2023-12-14T07:10:06;5.50;99.90
31661;DHT22;18267;52.234;7.444;2023-12-14T07:12:32;5.40;99.90
31661;DHT22;18267;52.234;7.444;2023-12-14T07:14:57;5.50;99.90
31661;DHT22;18267;52.234;7.444;2023-12-14T07:17:23;5.50;99.90
31661;DHT22;18267;52.234;7.444;2023-12-14T07:19:50;5.40;99.90
31661;DHT22;18267;52.234;7.444;2023-12-14T07:22:16;5.40;99.90
31661;DHT22;18267;52.234;7.444;2023-12-14T07:24:41;5.40;99.90
31661;DHT22;18267;52.234;7.444;2023-12-14T07:27:07;5.30;99.90
31661;DHT22;18267;52.234;7.444;2023-12-14T07:29:32;5.50;99.90
31661;DHT22;18267;52.234;7.444;2023-12-14T07:31:58;5.60;99.90
31661;DHT22;18267;52.234;7.444;2023-12-14T07:34:23;5.70;99.90
31661;DHT22;18267;52.234;7.444;2023-12-14T07:36:50;5.70;99.90
31661;DHT22;18267;52.234;7.444;2023-12-14T07:39:15;5.70;99.90
31661;DHT22;18267;52.234;7.444;2023-12-14T07:41:41;5.70;99.90
31661;DHT22;18267;52.234;7.444;2023-12-14T07:44:07;5.70;99.90
31661;DHT22;18267;52.234;7.444;2023-12-14T07:46:32;5.70;99.90
31661;DHT22;18267;52.234;7.444;2023-12-14T07:48:58;5.80;99.90
31661;DHT22;18267;52.234;7.444;2023-12-14T07:51:23;5.70;99.90
31661;DHT22;18267;52.234;7.444;2023-12-14T07:53:49;5.70;99.90
31661;DHT22;18267;52.234;7.444;2023-12-14T07:56:15;5.60;99.90
31661;DHT22;18267;52.234;7.444;2023-12-14T07:58:40;5.50;99.90
31661;DHT22;18267;52.234;7.444;2023-12-14T08:01:06;5.50;99.90
31661;DHT22;18267;52.234;7.444;2023-12-14T08:03:31;5.50;99.90
31661;DHT22;18267;52.234;7.444;2023-12-14T08:05:57;5.40;99.90
31661;DHT22;18267;52.234;7.444;2023-12-14T08:08:23;5.40;99.90
31661;DHT22;18267;52.234;7.444;2023-12-14T08:10:49;5.60;99.90
31661;DHT22;18267;52.234;7.444;2023-12-14T08:13:15;5.70;99.90
31661;DHT22;18267;52.234;7.444;2023-12-14T08:15:40;5.80;99.90
31661;DHT22;18267;52.234;7.444;2023-12-14T08:18:08;5.80;99.90
31661;DHT22;18267;52.234;7.444;2023-12-14T08:20:33;5.70;99.90
31661;DHT22;18267;52.234;7.444;2023-12-14T08:22:59;5.60;99.90
31661;DHT22;18267;52.234;7.444;2023-12-14T08:25:24;5.70;99.90
31661;DHT22;18267;52.234;7.444;2023-12-14T08:27:51;5.90;99.90
31661;DHT22;18267;52.234;7.444;2023-12-14T08:30:16;5.90;99.90
31661;DHT22;18267;52.234;7.444;2023-12-14T08:32:42;5.90;99.90
31661;DHT22;18267;52.234;7.444;2023-12-14T08:35:08;6.00;99.90
31661;DHT22;18267;52.234;7.444;2023-12-14T08:37:35;6.00;99.90
31661;DHT22;18267;52.234;7.444;2023-12-14T08:40:01;6.10;99.90
31661;DHT22;18267;52.234;7.444;2023-12-14T08:42:27;6.10;99.90
31661;DHT22;18267;52.234;7.444;2023-12-14T08:44:52;6.10;99.90
31661;DHT22;18267;52.234;7.444;2023-12-14T08:47:18;6.00;99.90
31661;DHT22;18267;52.234;7.444;2023-12-14T08:49:43;5.90;99.90
31661;DHT22;18267;52.234;7.444;2023-12-14T08:52:09;5.80;99.90
31661;DHT22;18267;52.234;7.444;2023-12-14T08:54:37;5.80;99.90
31661;DHT22;18267;52.234;7.444;2023-12-14T08:57:02;5.70;99.90
31661;DHT22;18267;52.234;7.444;2023-12-14T08:59:28;5.60;99.90
31661;DHT22;18267;52.234;7.444;2023-12-14T09:01:53;5.60;99.90
31661;DHT22;18267;52.234;7.444;2023-12-14T09:04:19;5.50;99.90
31661;DHT22;18267;52.234;7.444;2023-12-14T09:06:46;5.50;99.90
31661;DHT22;18267;52.234;7.444;2023-12-14T09:09:11;5.60;99.90
31661;DHT22;18267;52.234;7.444;2023-12-14T09:11:38;5.60;99.90
31661;DHT22;18267;52.234;7.444;2023-12-14T09:14:03;5.70;99.90
31661;DHT22;18267;52.234;7.444;2023-12-14T09:16:29;5.70;99.90
31661;DHT22;18267;52.234;7.444;2023-12-14T09:18:54;5.70;99.90
31661;DHT22;18267;52.234;7.444;2023-12-14T09:21:20;5.70;99.90
31661;DHT22;18267;52.234;7.444;2023-12-14T09:23:45;5.70;99.90
31661;DHT22;18267;52.234;7.444;2023-12-14T09:26:11;5.80;99.90
31661;DHT22;18267;52.234;7.444;2023-12-14T09:28:36;5.80;99.90
31661;DHT22;18267;52.234;7.444;2023-12-14T09:31:03;6.00;99.90
31661;DHT22;18267;52.234;7.444;2023-12-14T09:33:28;6.10;99.90
31661;DHT22;18267;52.234;7.444;2023-12-14T09:35:54;6.30;99.90
31661;DHT22;18267;52.234;7.444;2023-12-14T09:38:20;6.40;99.90
31661;DHT22;18267;52.234;7.444;2023-12-14T09:40:45;6.50;99.90
31661;DHT22;18267;52.234;7.444;2023-12-14T09:43:11;6.60;99.90
31661;DHT22;18267;52.234;7.444;2023-12-14T09:45:40;6.70;99.90
31661;DHT22;18267;52.234;7.444;2023-12-14T09:48:10;6.70;99.90
31661;DHT22;18267;52.234;7.444;2023-12-14T09:50:38;6.70;99.90
31661;DHT22;18267;52.234;7.444;2023-12-14T09:53:04;6.80;99.90
31661;DHT22;18267;52.234;7.444;2023-12-14T09:55:30;6.90;99.90
31661;DHT22;18267;52.234;7.444;2023-12-14T09:57:56;7.00;99.90
31661;DHT22;18267;52.234;7.444;2023-12-14T10:00:36;7.00;99.90
31661;DHT22;18267;52.234;7.444;2023-12-14T10:03:23;7.10;99.90
31661;DHT22;18267;52.234;7.444;2023-12-14T10:05:52;6.90;99.90
31661;DHT22;18267;52.234;7.444;2023-12-14T10:08:18;6.90;99.90
31661;DHT22;18267;52.234;7.444;2023-12-14T10:10:44;6.80;99.90
31661;DHT22;18267;52.234;7.444;2023-12-14T10:13:10;6.70;99.90
31661;DHT22;18267;52.234;7.444;2023-12-14T10:15:44;6.60;99.90
31661;DHT22;18267;52.234;7.444;2023-12-14T10:18:10;6.40;99.90
31661;DHT22;18267;52.234;7.444;2023-12-14T10:20:36;6.40;99.90
31661;DHT22;18267;52.234;7.444;2023-12-14T10:23:06;6.40;99.90
31661;DHT22;18267;52.234;7.444;2023-12-14T10:25:32;6.40;99.90
31661;DHT22;18267;52.234;7.444;2023-12-14T10:27:58;6.40;99.90
31661;DHT22;18267;52.234;7.444;2023-12-14T10:30:25;6.40;99.90
31661;DHT22;18267;52.234;7.444;2023-12-14T10:32:53;6.50;99.90
31661;DHT22;18267;52.234;7.444;2023-12-14T10:35:19;6.50;99.90
31661;DHT22;18267;52.234;7.444;2023-12-14T10:37:46;6.60;99.90
31661;DHT22;18267;52.234;7.444;2023-12-14T10:40:14;6.60;99.90
31661;DHT22;18267;52.234;7.444;2023-12-14T10:42:43;6.70;99.90
31661;DHT22;18267;52.234;7.444;2023-12-14T10:45:11;6.80;99.90
31661;DHT22;18267;52.234;7.444;2023-12-14T10:47:39;6.80;99.90
31661;DHT22;18267;52.234;7.444;2023-12-14T10:50:08;6.80;99.90
31661;DHT22;18267;52.234;7.444;2023-12-14T10:52:35;6.90;99.90
31661;DHT22;18267;52.234;7.444;2023-12-14T10:55:27;6.90;99.90
31661;DHT22;18267;52.234;7.444;2023-12-14T10:57:52;6.90;99.90
31661;DHT22;18267;52.234;7.444;2023-12-14T11:00:18;6.80;99.90
31661;DHT22;18267;52.234;7.444;2023-12-14T11:02:47;6.80;99.90
31661;DHT22;18267;52.234;7.444;2023-12-14T11:05:15;6.80;99.90
31661;DHT22;18267;52.234;7.444;2023-12-14T11:07:44;6.80;99.90
31661;DHT22;18267;52.234;7.444;2023-12-14T11:10:13;6.80;99.90
31661;DHT22;18267;52.234;7.444;2023-12-14T11:13:00;6.80;99.90
31661;DHT22;18267;52.234;7.444;2023-12-14T11:15:27;6.90;99.90
31661;DHT22;18267;52.234;7.444;2023-12-14T11:25:43;6.90;99.90
31661;DHT22;18267;52.234;7.444;2023-12-14T11:28:10;6.80;99.90
31661;DHT22;18267;52.234;7.444;2023-12-14T11:30:36;6.90;99.90
31661;DHT22;18267;52.234;7.444;2023-12-14T11:33:02;6.90;99.90
31661;DHT22;18267;52.234;7.444;2023-12-14T11:35:28;6.90;99.90
31661;DHT22;18267;52.234;7.444;2023-12-14T11:37:55;6.80;99.90
31661;DHT22;18267;52.234;7.444;2023-12-14T11:40:23;6.90;99.90
31661;DHT22;18267;52.234;7.444;2023-12-14T11:43:02;6.90;99.90
31661;DHT22;18267;52.234;7.444;2023-12-14T11:45:32;6.90;99.90
31661;DHT22;18267;52.234;7.444;2023-12-14T11:47:57;6.90;99.90
31661;DHT22;18267;52.234;7.444;2023-12-14T11:50:23;6.80;99.90
31661;DHT22;18267;52.234;7.444;2023-12-14T11:52:49;6.80;99.90
31661;DHT22;18267;52.234;7.444;2023-12-14T11:55:15;6.80;99.90
31661;DHT22;18267;52.234;7.444;2023-12-14T11:57:46;6.80;99.90
31661;DHT22;18267;52.234;7.444;2023-12-14T12:00:13;6.90;99.90
31661;DHT22;18267;52.234;7.444;2023-12-14T12:02:39;6.90;99.90
31661;DHT22;18267;52.234;7.444;2023-12-14T12:05:06;6.90;99.90
31661;DHT22;18267;52.234;7.444;2023-12-14T12:07:32;7.00;99.90
31661;DHT22;18267;52.234;7.444;2023-12-14T12:09:59;7.00;99.90
31661;DHT22;18267;52.234;7.444;2023-12-14T12:12:24;7.00;99.90
31661;DHT22;18267;52.234;7.444;2023-12-14T12:14:50;7.00;99.90
31661;DHT22;18267;52.234;7.444;2023-12-14T12:17:18;7.00;99.90
31661;DHT22;18267;52.234;7.444;2023-12-14T12:19:45;7.00;99.90
31661;DHT22;18267;52.234;7.444;2023-12-14T12:22:10;7.00;99.90
31661;DHT22;18267;52.234;7.444;2023-12-14T12:24:36;6.90;99.90
31661;DHT22;18267;52.234;7.444;2023-12-14T12:27:03;6.80;99.90
31661;DHT22;18267;52.234;7.444;2023-12-14T12:29:29;6.90;99.90
31661;DHT22;18267;52.234;7.444;2023-12-14T12:31:55;6.90;99.90
31661;DHT22;18267;52.234;7.444;2023-12-14T12:34:21;6.90;99.90
31661;DHT22;18267;52.234;7.444;2023-12-14T12:36:46;6.90;99.90
31661;DHT22;18267;52.234;7.444;2023-12-14T12:39:12;7.00;99.90
31661;DHT22;18267;52.234;7.444;2023-12-14T12:41:37;6.90;99.90
31661;DHT22;18267;52.234;7.444;2023-12-14T12:44:04;6.90;99.90
31661;DHT22;18267;52.234;7.444;2023-12-14T12:46:34;7.00;99.90
31661;DHT22;18267;52.234;7.444;2023-12-14T12:49:01;7.00;99.90
31661;DHT22;18267;52.234;7.444;2023-12-14T12:51:27;6.90;99.90
31661;DHT22;18267;52.234;7.444;2023-12-14T12:53:54;6.90;99.90
31661;DHT22;18267;52.234;7.444;2023-12-14T12:56:20;6.90;99.90
31661;DHT22;18267;52.234;7.444;2023-12-14T12:58:46;6.90;99.90
31661;DHT22;18267;52.234;7.444;2023-12-14T13:01:12;6.90;99.90
31661;DHT22;18267;52.234;7.444;2023-12-14T13:03:37;7.00;99.90
31661;DHT22;18267;52.234;7.444;2023-12-14T13:06:03;7.00;99.90
31661;DHT22;18267;52.234;7.444;2023-12-14T13:08:29;7.10;99.90
31661;DHT22;18267;52.234;7.444;2023-12-14T13:10:54;7.10;99.90
31661;DHT22;18267;52.234;7.444;2023-12-14T13:13:20;7.10;99.90
31661;DHT22;18267;52.234;7.444;2023-12-14T13:15:45;7.20;99.90
31661;DHT22;18267;52.234;7.444;2023-12-14T13:18:11;7.20;99.90
31661;DHT22;18267;52.234;7.444;2023-12-14T13:20:36;7.20;99.90
31661;DHT22;18267;52.234;7.444;2023-12-14T13:23:02;7.20;99.90
31661;DHT22;18267;52.234;7.444;2023-12-14T13:25:28;7.20;99.90
31661;DHT22;18267;52.234;7.444;2023-12-14T13:27:53;7.30;99.90
31661;DHT22;18267;52.234;7.444;2023-12-14T13:30:19;7.20;99.90
31661;DHT22;18267;52.234;7.444;2023-12-14T13:32:48;7.20;99.90
31661;DHT22;18267;52.234;7.444;2023-12-14T13:35:13;7.20;99.90
31661;DHT22;18267;52.234;7.444;2023-12-14T13:37:39;7.20;99.90
31661;DHT22;18267;52.234;7.444;2023-12-14T13:40:05;7.20;99.90
31661;DHT22;18267;52.234;7.444;2023-12-14T13:42:31;7.20;99.90
31661;DHT22;18267;52.234;7.444;2023-12-14T13:44:56;7.20;99.90
31661;DHT22;18267;52.234;7.444;2023-12-14T13:47:22;7.20;99.90
31661;DHT22;18267;52.234;7.444;2023-12-14T13:49:48;7.20;99.90
31661;DHT22;18267;52.234;7.444;2023-12-14T13:52:13;7.20;99.90
31661;DHT22;18267;52.234;7.444;2023-12-14T13:54:39;7.30;99.90
31661;DHT22;18267;52.234;7.444;2023-12-14T13:57:05;7.20;99.90
31661;DHT22;18267;52.234;7.444;2023-12-14T13:59:30;7.20;99.90
31661;DHT22;18267;52.234;7.444;2023-12-14T14:01:56;7.10;99.90
31661;DHT22;18267;52.234;7.444;2023-12-14T14:04:21;7.20;99.90
31661;DHT22;18267;52.234;7.444;2023-12-14T14:06:47;7.20;99.90
31661;DHT22;18267;52.234;7.444;2023-12-14T14:09:12;7.20;99.90
31661;DHT22;18267;52.234;7.444;2023-12-14T14:11:39;7.10;99.90
31661;DHT22;18267;52.234;7.444;2023-12-14T14:14:11;7.20;99.90
31661;DHT22;18267;52.234;7.444;2023-12-14T14:16:36;7.20;99.90
31661;DHT22;18267;52.234;7.444;2023-12-14T14:19:02;7.20;99.90
31661;DHT22;18267;52.234;7.444;2023-12-14T14:21:28;7.20;99.90
31661;DHT22;18267;52.234;7.444;2023-12-14T14:23:54;7.20;99.90
31661;DHT22;18267;52.234;7.444;2023-12-14T14:26:19;7.00;99.90
31661;DHT22;18267;52.234;7.444;2023-12-14T14:28:45;7.10;99.90
31661;DHT22;18267;52.234;7.444;2023-12-14T14:31:11;7.10;99.90
31661;DHT22;18267;52.234;7.444;2023-12-14T14:33:37;7.20;99.90
31661;DHT22;18267;52.234;7.444;2023-12-14T14:36:03;7.10;99.90
31661;DHT22;18267;52.234;7.444;2023-12-14T14:38:31;6.90;99.90
31661;DHT22;18267;52.234;7.444;2023-12-14T14:40:57;6.90;99.90
31661;DHT22;18267;52.234;7.444;2023-12-14T14:43:22;6.80;99.90
31661;DHT22;18267;52.234;7.444;2023-12-14T14:45:48;6.80;99.90
31661;DHT22;18267;52.234;7.444;2023-12-14T14:48:13;6.70;99.90
31661;DHT22;18267;52.234;7.444;2023-12-14T14:50:39;6.70;99.90
31661;DHT22;18267;52.234;7.444;2023-12-14T14:53:05;6.70;99.90
31661;DHT22;18267;52.234;7.444;2023-12-14T14:55:30;6.60;99.90
31661;DHT22;18267;52.234;7.444;2023-12-14T14:57:56;6.50;99.90
31661;DHT22;18267;52.234;7.444;2023-12-14T15:00:22;6.50;99.90
31661;DHT22;18267;52.234;7.444;2023-12-14T15:02:49;6.50;99.90
31661;DHT22;18267;52.234;7.444;2023-12-14T15:05:14;6.50;99.90
31661;DHT22;18267;52.234;7.444;2023-12-14T15:07:40;6.60;99.90
31661;DHT22;18267;52.234;7.444;2023-12-14T15:10:07;6.60;99.90
31661;DHT22;18267;52.234;7.444;2023-12-14T15:12:33;6.70;99.90
31661;DHT22;18267;52.234;7.444;2023-12-14T15:14:58;6.70;99.90
31661;DHT22;18267;52.234;7.444;2023-12-14T15:17:24;6.70;99.90
31661;DHT22;18267;52.234;7.444;2023-12-14T15:19:49;6.70;99.90
31661;DHT22;18267;52.234;7.444;2023-12-14T15:22:16;6.80;99.90
31661;DHT22;18267;52.234;7.444;2023-12-14T15:24:41;6.80;99.90
31661;DHT22;18267;52.234;7.444;2023-12-14T15:27:07;6.90;99.90
31661;DHT22;18267;52.234;7.444;2023-12-14T15:29:33;6.90;99.90
31661;DHT22;18267;52.234;7.444;2023-12-14T15:31:58;6.90;99.90
31661;DHT22;18267;52.234;7.444;2023-12-14T15:34:24;6.90;99.90
31661;DHT22;18267;52.234;7.444;2023-12-14T15:36:49;6.80;99.90
31661;DHT22;18267;52.234;7.444;2023-12-14T15:39:15;6.80;99.90
31661;DHT22;18267;52.234;7.444;2023-12-14T15:41:40;6.80;99.90
31661;DHT22;18267;52.234;7.444;2023-12-14T15:44:06;6.80;99.90
31661;DHT22;18267;52.234;7.444;2023-12-14T15:46:32;6.90;99.90